Time;durP1;ratioP1;P1;durP2;ratioP2;P2;SDS_P1;SDS_P2;PMS_P1;PMS_P2;Temp;Humidity;BMP_temperature;BMP_pressure;BME280_temperature;BME280_humidity;BME280_pressure;Samples;Min_cycle;Max_cycle;Signal;HPM_P1;HPM_P2
2022/10/21 00:01:23;;;;;;;1999.90;999.90;;;;;;;9.52;100.00;98424.00;4978323;28;20544;-73
2022/10/21 00:03:48;;;;;;;1999.90;999.90;;;;;;;9.51;100.00;98419.66;4982932;28;20114;-73
2022/10/21 00:06:13;;;;;;;1999.90;999.90;;;;;;;9.49;100.00;98429.22;4984487;28;20030;-73
2022/10/21 00:08:39;;;;;;;1999.90;999.90;;;;;;;9.57;100.00;98421.28;4991454;28;20046;-72
2022/10/21 00:11:07;;;;;;;1999.90;999.90;;;;;;;9.59;100.00;98418.25;4981402;28;20030;-73
2022/10/21 00:13:34;;;;;;;1999.90;999.90;;;;;;;9.58;100.00;98414.75;4971965;28;20031;-73
2022/10/21 00:16:00;;;;;;;1999.90;999.90;;;;;;;9.56;100.00;98413.34;4971942;28;20023;-73
2022/10/21 00:18:26;;;;;;;1999.90;999.90;;;;;;;9.54;100.00;98401.91;4971811;28;20030;-73
2022/10/21 00:20:52;;;;;;;1999.90;999.90;;;;;;;9.49;100.00;98407.38;4971981;28;20745;-73
2022/10/21 00:23:17;;;;;;;1999.90;999.90;;;;;;;9.38;100.00;98401.13;4972299;28;20420;-73
2022/10/21 00:25:42;;;;;;;1999.90;999.90;;;;;;;9.35;100.00;98398.13;4972015;28;20400;-73
2022/10/21 00:28:08;;;;;;;1999.90;999.90;;;;;;;9.33;100.00;98398.41;4971715;28;20023;-72
2022/10/21 00:30:33;;;;;;;1999.90;999.90;;;;;;;9.26;100.00;98397.88;4971746;28;20493;-73
2022/10/21 00:32:58;;;;;;;1999.90;999.90;;;;;;;9.25;100.00;98396.22;4971615;28;20058;-73
2022/10/21 00:35:24;;;;;;;1999.90;999.90;;;;;;;9.22;100.00;98387.78;4971794;28;20031;-73
2022/10/21 00:37:49;;;;;;;1999.90;999.90;;;;;;;9.13;100.00;98384.78;4971772;28;20046;-73
2022/10/21 00:40:15;;;;;;;1999.90;999.90;;;;;;;9.10;100.00;98382.63;4971365;28;20057;-73
2022/10/21 00:42:40;;;;;;;1999.90;999.90;;;;;;;9.10;100.00;98379.88;4971518;28;20065;-73
2022/10/21 00:45:06;;;;;;;1999.90;999.90;;;;;;;9.07;100.00;98383.16;4974336;28;20031;-73
2022/10/21 00:47:42;;;;;;;1999.90;999.90;;;;;;;9.01;100.00;98376.06;4975779;28;20042;-73
2022/10/21 00:50:22;;;;;;;1999.90;999.90;;;;;;;9.08;100.00;98374.69;4975822;28;20038;-73
2022/10/21 00:52:47;;;;;;;1999.90;999.90;;;;;;;9.26;100.00;98377.94;4978252;28;20041;-73
2022/10/21 00:55:13;;;;;;;1999.90;999.90;;;;;;;9.35;100.00;98382.56;4982397;28;20408;-73
2022/10/21 00:57:38;;;;;;;1999.90;999.90;;;;;;;9.48;100.00;98379.25;4976496;28;20117;-73
2022/10/21 01:00:05;;;;;;;1999.90;999.90;;;;;;;9.47;100.00;98376.78;4975545;28;20476;-73
2022/10/21 01:02:31;;;;;;;1999.90;999.90;;;;;;;9.50;100.00;98376.22;4975165;28;20042;-73
2022/10/21 01:04:59;;;;;;;1999.90;999.90;;;;;;;9.49;100.00;98369.94;4975428;28;20489;-73
2022/10/21 01:07:25;;;;;;;1999.90;999.90;;;;;;;9.48;100.00;98362.88;4975124;28;20837;-72
2022/10/21 01:09:51;;;;;;;1999.90;999.90;;;;;;;9.49;100.00;98358.25;4975024;28;20136;-73
2022/10/21 01:12:34;;;;;;;1999.90;999.90;;;;;;;9.50;100.00;98355.22;4975169;28;20027;-73
2022/10/21 01:15:15;;;;;;;1999.90;999.90;;;;;;;9.47;100.00;98361.22;4975100;28;20169;-73
2022/10/21 01:18:01;;;;;;;1999.90;999.90;;;;;;;9.40;100.00;98357.97;4973850;28;20081;-73
2022/10/21 01:20:52;;;;;;;1999.90;999.90;;;;;;;9.42;100.00;98355.81;4975131;28;20042;-72
2022/10/21 01:23:45;;;;;;;1999.90;999.90;;;;;;;9.33;100.00;98341.09;4975486;28;20039;-73
2022/10/21 01:26:22;;;;;;;1999.90;999.90;;;;;;;9.34;100.00;98339.16;4974907;28;20078;-73
2022/10/21 01:29:24;;;;;;;1999.90;999.90;;;;;;;9.38;100.00;98338.34;4974910;28;20528;-73
2022/10/21 01:31:58;;;;;;;1999.90;999.90;;;;;;;9.32;100.00;98333.97;4974752;28;20030;-73
2022/10/21 01:34:49;;;;;;;1999.90;999.90;;;;;;;9.26;100.00;98331.53;4974623;28;20476;-73
2022/10/21 01:37:24;;;;;;;1999.90;999.90;;;;;;;9.15;100.00;98336.19;4974914;28;20547;-73
2022/10/21 01:39:56;;;;;;;1999.90;999.90;;;;;;;9.07;100.00;98334.06;4974625;28;20146;-73
2022/10/21 01:42:33;;;;;;;1999.90;999.90;;;;;;;9.21;100.00;98328.84;4974562;28;20039;-73
2022/10/21 01:44:58;;;;;;;1999.90;999.90;;;;;;;9.35;100.00;98325.25;4974843;28;20407;-73
2022/10/21 01:47:38;;;;;;;1999.90;999.90;;;;;;;9.37;100.00;98317.56;4974625;28;20030;-73
2022/10/21 01:50:09;;;;;;;1999.90;999.90;;;;;;;9.38;100.00;98321.94;4974410;28;20515;-73
2022/10/21 01:52:36;;;;;;;1999.90;999.90;;;;;;;9.38;100.00;98327.41;4974868;28;20030;-73
2022/10/21 01:55:08;;;;;;;1999.90;999.90;;;;;;;9.35;100.00;98322.50;4974156;28;20081;-73
2022/10/21 01:57:40;;;;;;;1999.90;999.90;;;;;;;9.22;100.00;98303.16;4974424;28;20053;-73
2022/10/21 02:00:07;;;;;;;1999.90;999.90;;;;;;;9.21;100.00;98307.81;4988259;28;20073;-73
2022/10/21 02:02:37;;;;;;;1999.90;999.90;;;;;;;9.10;100.00;98300.75;4994035;28;20080;-73
2022/10/21 02:05:09;;;;;;;1999.90;999.90;;;;;;;9.12;100.00;98309.47;4993818;28;20038;-73
2022/10/21 02:07:35;;;;;;;1999.90;999.90;;;;;;;9.09;100.00;98310.84;4992380;28;20493;-73
2022/10/21 02:10:00;;;;;;;1999.90;999.90;;;;;;;9.11;100.00;98302.41;4993486;28;20125;-73
2022/10/21 02:12:29;;;;;;;1999.90;999.90;;;;;;;9.19;100.00;98306.44;4993513;28;20503;-73
2022/10/21 02:14:58;;;;;;;1999.90;999.90;;;;;;;9.07;100.00;98298.56;4994097;28;20042;-73
2022/10/21 02:17:26;;;;;;;1999.90;999.90;;;;;;;9.00;100.00;98309.78;4994413;28;20031;-73
2022/10/21 02:19:54;;;;;;;1999.90;999.90;;;;;;;9.00;100.00;98319.88;4994634;28;20034;-73
2022/10/21 02:22:21;;;;;;;1999.90;999.90;;;;;;;9.01;100.00;98305.16;4994726;28;20027;-73
2022/10/21 02:24:59;;;;;;;1999.90;999.90;;;;;;;9.07;100.00;98301.31;4993331;28;20572;-74
2022/10/21 02:27:25;;;;;;;1999.90;999.90;;;;;;;9.12;100.00;98296.66;4993486;28;20128;-73
2022/10/21 02:29:56;;;;;;;1999.90;999.90;;;;;;;9.10;100.00;98289.84;4993051;28;20479;-73
2022/10/21 02:32:39;;;;;;;1999.90;999.90;;;;;;;9.18;100.00;98285.72;4993189;28;20514;-73
2022/10/21 02:35:13;;;;;;;1999.90;999.90;;;;;;;9.24;100.00;98285.41;4993228;28;20030;-73
2022/10/21 02:37:52;;;;;;;1999.90;999.90;;;;;;;9.23;100.00;98288.44;4993237;28;20034;-73
2022/10/21 02:40:25;;;;;;;1999.90;999.90;;;;;;;9.13;100.00;98294.75;4989018;28;20038;-73
2022/10/21 02:42:56;;;;;;;1999.90;999.90;;;;;;;9.24;100.00;98296.31;4993178;28;20033;-73
2022/10/21 02:45:22;;;;;;;1999.90;999.90;;;;;;;9.25;100.00;98292.50;4992930;28;20034;-73
2022/10/21 02:47:48;;;;;;;1999.90;999.90;;;;;;;9.17;100.00;98295.81;4992870;28;20506;-73
2022/10/21 02:50:14;;;;;;;1999.90;999.90;;;;;;;9.18;100.00;98297.44;4991653;28;20492;-73
2022/10/21 02:52:39;;;;;;;1999.90;999.90;;;;;;;9.14;100.00;98296.38;4993050;28;20049;-73
2022/10/21 02:55:05;;;;;;;1999.90;999.90;;;;;;;9.12;100.00;98293.09;4992773;28;20035;-72
2022/10/21 02:57:30;;;;;;;1999.90;999.90;;;;;;;9.21;100.00;98299.63;4992888;28;20097;-73
2022/10/21 02:59:56;;;;;;;1999.90;999.90;;;;;;;9.20;100.00;98291.72;4992911;28;20476;-73
2022/10/21 03:02:21;;;;;;;1999.90;999.90;;;;;;;9.11;100.00;98302.41;4993947;28;20029;-73
2022/10/21 03:04:46;;;;;;;1999.90;999.90;;;;;;;9.06;100.00;98302.38;4999750;28;20049;-73
2022/10/21 03:07:12;;;;;;;1999.90;999.90;;;;;;;9.05;100.00;98300.78;4993687;28;20392;-72
2022/10/21 03:09:37;;;;;;;1999.90;999.90;;;;;;;8.94;100.00;98299.97;4992576;28;20500;-73
2022/10/21 03:12:02;;;;;;;1999.90;999.90;;;;;;;8.86;100.00;98299.72;4992641;28;20031;-73
2022/10/21 03:14:28;;;;;;;1999.90;999.90;;;;;;;8.83;100.00;98308.47;4992441;28;20076;-73
2022/10/21 03:16:53;;;;;;;1999.90;999.90;;;;;;;8.78;100.00;98303.81;4992457;28;20535;-73
2022/10/21 03:19:18;;;;;;;1999.90;999.90;;;;;;;8.74;100.00;98310.91;4992067;28;20427;-73
2022/10/21 03:21:43;;;;;;;1999.90;999.90;;;;;;;8.76;100.00;98310.63;4992320;28;20126;-73
2022/10/21 03:24:09;;;;;;;1999.90;999.90;;;;;;;8.72;100.00;98304.91;4992515;28;20030;-72
2022/10/21 03:26:34;;;;;;;1999.90;999.90;;;;;;;8.66;100.00;98305.19;4994563;28;20432;-73
2022/10/21 03:28:59;;;;;;;1999.90;999.90;;;;;;;8.64;100.00;98301.94;4996408;28;20054;-73
2022/10/21 03:31:25;;;;;;;1999.90;999.90;;;;;;;8.63;100.00;98300.28;4993663;28;20077;-73
2022/10/21 03:33:50;;;;;;;1999.90;999.90;;;;;;;8.55;100.00;98285.31;4992498;28;20040;-73
2022/10/21 03:36:15;;;;;;;1999.90;999.90;;;;;;;8.73;100.00;98300.28;4991450;28;20018;-72
2022/10/21 03:38:41;;;;;;;1999.90;999.90;;;;;;;8.81;100.00;98296.97;4991189;28;20073;-72
2022/10/21 03:41:06;;;;;;;1999.90;999.90;;;;;;;8.87;100.00;98298.59;4992131;28;20030;-73
2022/10/21 03:43:31;;;;;;;1999.90;999.90;;;;;;;8.90;100.00;98284.41;4991836;28;20018;-73
2022/10/21 03:45:57;;;;;;;1999.90;999.90;;;;;;;8.94;100.00;98280.88;4991900;28;20469;-73
2022/10/21 03:48:22;;;;;;;1999.90;999.90;;;;;;;8.97;100.00;98284.94;4991982;28;20048;-73
2022/10/21 03:50:47;;;;;;;1999.90;999.90;;;;;;;8.99;100.00;98280.06;4991720;28;20672;-73
2022/10/21 03:53:13;;;;;;;1999.90;999.90;;;;;;;9.04;100.00;98280.84;4992164;28;20054;-74
2022/10/21 03:55:38;;;;;;;1999.90;999.90;;;;;;;9.07;100.00;98284.94;4991742;28;20029;-73
2022/10/21 03:58:04;;;;;;;1999.90;999.90;;;;;;;9.11;100.00;98272.38;4991553;28;20037;-73
2022/10/21 04:00:29;;;;;;;1999.90;999.90;;;;;;;9.09;100.00;98277.28;4991525;28;20033;-73
2022/10/21 04:02:54;;;;;;;1999.90;999.90;;;;;;;9.14;100.00;98280.81;4984493;28;20034;-73
2022/10/21 04:05:20;;;;;;;1999.90;999.90;;;;;;;9.05;100.00;98276.22;4961724;28;20118;-73
2022/10/21 04:07:45;;;;;;;1999.90;999.90;;;;;;;9.06;100.00;98277.84;4952324;29;20155;-73
2022/10/21 04:10:10;;;;;;;1999.90;999.90;;;;;;;9.07;100.00;98271.28;4960361;28;20039;-73
2022/10/21 04:12:36;;;;;;;1999.90;999.90;;;;;;;9.10;100.00;98278.91;4952395;29;20071;-73
2022/10/21 04:15:02;;;;;;;1999.90;999.90;;;;;;;9.05;100.00;98271.56;4952606;28;20501;-73
2022/10/21 04:17:27;;;;;;;1999.90;999.90;;;;;;;9.10;100.00;98278.91;4952557;29;20031;-73
2022/10/21 04:19:52;;;;;;;1999.90;999.90;;;;;;;9.18;100.00;98283.00;4952143;28;20034;-73
2022/10/21 04:22:18;;;;;;;1999.90;999.90;;;;;;;9.19;100.00;98276.44;4964436;28;20031;-73
2022/10/21 04:24:43;;;;;;;1999.90;999.90;;;;;;;9.18;100.00;98270.16;4971917;28;20158;-73
2022/10/21 04:27:08;;;;;;;1999.90;999.90;;;;;;;9.19;100.00;98266.34;4971607;28;20369;-73
2022/10/21 04:29:34;;;;;;;1999.90;999.90;;;;;;;9.19;100.00;98265.50;4971482;28;20027;-73
2022/10/21 04:31:59;;;;;;;1999.90;999.90;;;;;;;9.17;100.00;98270.44;4971576;28;20034;-73
2022/10/21 04:34:24;;;;;;;1999.90;999.90;;;;;;;9.05;100.00;98260.63;4971567;28;20029;-73
2022/10/21 04:36:51;;;;;;;1999.90;999.90;;;;;;;9.06;100.00;98265.00;4971390;28;20035;-74
2022/10/21 04:39:18;;;;;;;1999.90;999.90;;;;;;;8.93;100.00;98259.31;4971404;28;20035;-73
2022/10/21 04:41:44;;;;;;;1999.90;999.90;;;;;;;8.93;100.00;98259.31;4970053;28;20033;-73
2022/10/21 04:44:10;;;;;;;1999.90;999.90;;;;;;;8.80;100.00;98263.44;4971490;28;20034;-73
2022/10/21 04:46:35;;;;;;;1999.90;999.90;;;;;;;8.81;100.00;98256.06;4971545;28;20408;-72
2022/10/21 04:49:00;;;;;;;1999.90;999.90;;;;;;;8.78;100.00;98253.91;4971471;28;20085;-73
2022/10/21 04:51:26;;;;;;;1999.90;999.90;;;;;;;8.78;100.00;98249.28;4976653;28;20376;-73
2022/10/21 04:53:51;;;;;;;1999.90;999.90;;;;;;;8.94;100.00;98244.59;4961208;28;20042;-73
2022/10/21 04:56:17;;;;;;;1999.90;999.90;;;;;;;8.85;100.00;98235.34;4952145;29;20035;-73
2022/10/21 04:58:42;;;;;;;1999.90;999.90;;;;;;;9.02;100.00;98227.66;4958724;28;20019;-74
2022/10/21 05:01:07;;;;;;;1999.90;999.90;;;;;;;9.15;100.00;98227.88;4952094;29;20035;-74
2022/10/21 05:03:33;;;;;;;1999.90;999.90;;;;;;;9.11;100.00;98223.25;4951965;29;20378;-74
2022/10/21 05:05:58;;;;;;;1999.90;999.90;;;;;;;9.10;100.00;98219.72;4951760;29;20032;-73
2022/10/21 05:08:23;;;;;;;1999.90;999.90;;;;;;;9.14;100.00;98225.44;4951970;29;20054;-73
2022/10/21 05:10:55;;;;;;;1999.90;999.90;;;;;;;9.11;100.00;98224.06;4954149;29;20039;-73
2022/10/21 05:13:20;;;;;;;1999.90;999.90;;;;;;;9.09;100.00;98220.78;4957075;29;20401;-73
2022/10/21 05:15:45;;;;;;;1999.90;999.90;;;;;;;9.14;100.00;98225.44;4956387;29;20031;-73
2022/10/21 05:18:14;;;;;;;1999.90;999.90;;;;;;;9.06;100.00;98226.81;4952668;29;20167;-73
2022/10/21 05:20:39;;;;;;;1999.90;999.90;;;;;;;8.98;100.00;98215.66;4951967;29;20031;-73
2022/10/21 05:23:05;;;;;;;1999.90;999.90;;;;;;;8.86;100.00;98215.16;4952470;29;20019;-74
2022/10/21 05:25:30;;;;;;;1999.90;999.90;;;;;;;8.82;100.00;98205.91;4960054;28;20034;-73
2022/10/21 05:27:55;;;;;;;1999.90;999.90;;;;;;;8.91;100.00;98212.41;4971569;28;20395;-74
2022/10/21 05:30:21;;;;;;;1999.90;999.90;;;;;;;8.94;100.00;98214.59;4970859;28;20480;-74
2022/10/21 05:32:46;;;;;;;1999.90;999.90;;;;;;;8.92;100.00;98211.31;4974812;28;20035;-74
2022/10/21 05:35:12;;;;;;;1999.90;999.90;;;;;;;8.99;100.00;98211.84;4974318;28;20117;-75
2022/10/21 05:37:38;;;;;;;1999.90;999.90;;;;;;;8.98;100.00;98218.41;4993043;28;20041;-73
2022/10/21 05:40:04;;;;;;;1999.90;999.90;;;;;;;9.02;100.00;98216.75;4988996;28;20037;-70
2022/10/21 05:42:30;;;;;;;1999.90;999.90;;;;;;;9.12;100.00;98222.97;4975237;28;20538;-70
2022/10/21 05:44:55;;;;;;;1999.90;999.90;;;;;;;9.18;100.00;98221.03;4974500;28;20039;-69
2022/10/21 05:47:22;;;;;;;1999.90;999.90;;;;;;;9.24;100.00;98221.84;4973166;28;20396;-70
2022/10/21 05:49:47;;;;;;;1999.90;999.90;;;;;;;9.26;100.00;98227.81;4972503;28;20038;-71
2022/10/21 05:52:13;;;;;;;1999.90;999.90;;;;;;;9.34;100.00;98229.97;4973260;28;20035;-71
2022/10/21 05:54:38;;;;;;;1999.90;999.90;;;;;;;9.42;100.00;98229.38;4974741;28;20069;-70
2022/10/21 05:57:03;;;;;;;1999.90;999.90;;;;;;;9.47;100.00;98223.88;4974140;28;20035;-70
2022/10/21 05:59:29;;;;;;;1999.90;999.90;;;;;;;9.51;100.00;98235.88;4956626;28;20031;-69
2022/10/21 06:01:54;;;;;;;1999.90;999.90;;;;;;;9.46;100.00;98235.94;4954822;29;20644;-69
2022/10/21 06:04:19;;;;;;;1999.90;999.90;;;;;;;9.49;100.00;98238.88;4954331;29;20023;-68
2022/10/21 06:06:45;;;;;;;1999.90;999.90;;;;;;;9.50;100.00;98240.53;4954810;29;20024;-69
2022/10/21 06:09:10;;;;;;;1999.90;999.90;;;;;;;9.54;100.00;98251.72;4955638;29;20086;-69
2022/10/21 06:11:35;;;;;;;1999.90;999.90;;;;;;;9.63;100.00;98244.56;4954628;28;20063;-69
2022/10/21 06:14:01;;;;;;;1999.90;999.90;;;;;;;9.60;100.00;98250.59;4978264;28;20072;-69
2022/10/21 06:16:26;;;;;;;1999.90;999.90;;;;;;;9.78;100.00;98260.03;4993234;28;20412;-73
2022/10/21 06:18:51;;;;;;;1999.90;999.90;;;;;;;9.75;100.00;98269.63;4993295;28;20050;-73
2022/10/21 06:21:17;;;;;;;1999.90;999.90;;;;;;;9.78;100.00;98268.22;4993008;28;20376;-73
2022/10/21 06:23:42;;;;;;;1999.90;999.90;;;;;;;10.00;100.00;98271.38;4992586;28;20361;-74
2022/10/21 06:26:11;;;;;;;1999.90;999.90;;;;;;;10.01;100.00;98273.81;4992951;28;20029;-73
2022/10/21 06:28:39;;;;;;;1999.90;999.90;;;;;;;9.98;100.00;98279.03;4993154;28;21532;-74
2022/10/21 06:31:06;;;;;;;1999.90;999.90;;;;;;;10.01;100.00;98281.19;4978447;28;20031;-73
2022/10/21 06:33:32;;;;;;;1999.90;999.90;;;;;;;10.12;100.00;98272.63;4981953;28;20106;-74
2022/10/21 06:35:57;;;;;;;1999.90;999.90;;;;;;;10.14;100.00;98269.66;4980683;28;20571;-74
2022/10/21 06:38:24;;;;;;;1999.90;999.90;;;;;;;10.23;100.00;98272.59;4982824;28;20060;-74
2022/10/21 06:40:50;;;;;;;1999.90;999.90;;;;;;;10.31;100.00;98261.03;4981922;28;20493;-74
2022/10/21 06:43:16;;;;;;;1999.90;999.90;;;;;;;10.49;100.00;98269.41;4979951;28;20070;-73
2022/10/21 06:45:41;;;;;;;1999.90;999.90;;;;;;;10.69;100.00;98269.19;4980468;28;20488;-73
2022/10/21 06:48:07;;;;;;;1999.90;999.90;;;;;;;10.77;100.00;98274.03;4970997;28;20030;-74
2022/10/21 06:50:32;;;;;;;1999.90;999.90;;;;;;;10.84;100.00;98281.09;4968243;28;20061;-74
2022/10/21 06:52:58;;;;;;;1999.90;999.90;;;;;;;10.78;100.00;98280.31;4989232;28;20034;-74
2022/10/21 06:55:23;;;;;;;1999.90;999.90;;;;;;;10.88;100.00;98287.63;4983247;28;20476;-73
2022/10/21 06:57:49;;;;;;;1999.90;999.90;;;;;;;11.02;100.00;98283.09;4980749;28;20034;-73
2022/10/21 07:00:14;;;;;;;1999.90;999.90;;;;;;;11.02;100.00;98294.88;4979689;28;20019;-73
2022/10/21 07:02:40;;;;;;;1999.90;999.90;;;;;;;10.96;100.00;98284.25;4981206;28;20029;-73
2022/10/21 07:05:06;;;;;;;1999.90;999.90;;;;;;;11.14;100.00;98286.25;4981237;28;20445;-73
2022/10/21 07:07:31;;;;;;;1999.90;999.90;;;;;;;11.22;100.00;98297.38;4983065;28;20023;-74
2022/10/21 07:09:56;;;;;;;1999.90;999.90;;;;;;;11.38;100.00;98292.53;4980679;28;20033;-73
2022/10/21 07:12:23;;;;;;;1999.90;999.90;;;;;;;11.46;100.00;98305.59;4974106;28;20081;-73
2022/10/21 07:14:49;;;;;;;1999.90;999.90;;;;;;;11.55;100.00;98294.81;4971347;28;20102;-73
2022/10/21 07:17:14;;;;;;;1999.90;999.90;;;;;;;11.62;100.00;98311.72;4971218;28;20142;-73
2022/10/21 07:19:40;;;;;;;1999.90;999.90;;;;;;;11.56;100.00;98305.47;4972053;28;20026;-73
2022/10/21 07:22:06;;;;;;;1999.90;999.90;;;;;;;11.48;100.00;98297.91;4976342;28;20041;-74
2022/10/21 07:24:31;;;;;;;1999.90;999.90;;;;;;;11.72;100.00;98298.72;4976246;28;20113;-73
2022/10/21 07:26:56;;;;;;;1999.90;999.90;;;;;;;11.94;100.00;98291.84;4972264;28;20039;-73
2022/10/21 07:29:22;;;;;;;1999.90;999.90;;;;;;;12.02;100.00;98296.66;4972629;28;20396;-74
2022/10/21 07:31:47;;;;;;;1999.90;999.90;;;;;;;12.05;100.00;98293.34;4972569;28;20031;-72
2022/10/21 07:34:13;;;;;;;1999.90;999.90;;;;;;;11.80;100.00;98298.06;4972660;28;20109;-73
2022/10/21 07:36:41;;;;;;;1999.90;999.90;;;;;;;11.73;100.00;98294.88;4972682;28;20041;-74
2022/10/21 07:39:12;;;;;;;1999.90;999.90;;;;;;;11.75;100.00;98294.56;4972757;28;20480;-73
2022/10/21 07:41:41;;;;;;;1999.90;999.90;;;;;;;12.01;100.00;98289.53;4972541;28;20400;-73
2022/10/21 07:44:07;;;;;;;1999.90;999.90;;;;;;;11.94;100.00;98294.56;4972701;28;20031;-73
2022/10/21 07:46:33;;;;;;;1999.90;999.90;;;;;;;12.15;100.00;98285.75;4972447;28;20437;-73
2022/10/21 07:48:59;;;;;;;1999.90;999.90;;;;;;;12.21;100.00;98292.00;4972224;28;20433;-73
2022/10/21 07:51:25;;;;;;;1999.90;999.90;;;;;;;12.30;100.00;98295.69;4972345;28;20080;-74
2022/10/21 07:53:53;;;;;;;1999.90;999.90;;;;;;;12.21;100.00;98295.56;4972110;28;20085;-73
2022/10/21 07:56:22;;;;;;;1999.90;999.90;;;;;;;12.22;100.00;98296.34;4972313;28;20045;-74
2022/10/21 07:58:49;;;;;;;1999.90;999.90;;;;;;;11.73;100.00;98289.38;4972400;28;20038;-74
2022/10/21 08:01:15;;;;;;;1999.90;999.90;;;;;;;11.87;100.00;98296.88;4972121;28;20105;-73
2022/10/21 08:03:41;;;;;;;1999.90;999.90;;;;;;;12.10;100.00;98304.22;4972128;28;20073;-73
2022/10/21 08:06:09;;;;;;;1999.90;999.90;;;;;;;12.28;100.00;98306.13;4972320;28;20026;-73
2022/10/21 08:08:36;;;;;;;1999.90;999.90;;;;;;;12.10;100.00;98298.72;4971990;28;20404;-73
2022/10/21 08:11:02;;;;;;;1999.90;999.90;;;;;;;12.32;100.00;98297.03;4972360;28;20066;-73
2022/10/21 08:13:30;;;;;;;1999.90;999.90;;;;;;;12.49;100.00;98288.25;4972392;28;20031;-73
2022/10/21 08:15:55;;;;;;;1999.90;999.90;;;;;;;12.46;100.00;98291.59;4972547;28;20483;-72
2022/10/21 08:18:21;;;;;;;1999.90;999.90;;;;;;;12.26;100.00;98280.94;4972169;28;20054;-72
2022/10/21 08:20:47;;;;;;;1999.90;999.90;;;;;;;12.07;100.00;98289.19;4971830;28;20038;-73
2022/10/21 08:23:15;;;;;;;1999.90;999.90;;;;;;;12.22;100.00;98279.91;4972034;28;20031;-73
2022/10/21 08:25:49;;;;;;;1999.90;999.90;;;;;;;12.46;100.00;98269.66;4972234;28;20031;-73
2022/10/21 08:28:16;;;;;;;1999.90;999.90;;;;;;;12.42;100.00;98279.59;4971774;28;20062;-73
2022/10/21 08:30:42;;;;;;;1999.90;999.90;;;;;;;12.46;100.00;98286.13;4971824;28;20101;-73
2022/10/21 08:33:08;;;;;;;1999.90;999.90;;;;;;;12.79;100.00;98279.50;4970674;28;20457;-73
2022/10/21 08:35:33;;;;;;;1999.90;999.90;;;;;;;12.93;100.00;98276.78;4971878;28;20113;-73
2022/10/21 08:37:59;;;;;;;1999.90;999.90;;;;;;;12.95;100.00;98279.22;4972053;28;20063;-73
2022/10/21 08:40:24;;;;;;;1999.90;999.90;;;;;;;13.10;100.00;98279.78;4971841;28;20023;-72
2022/10/21 08:42:50;;;;;;;1999.90;999.90;;;;;;;13.10;100.00;98277.03;4971518;28;20062;-73
2022/10/21 08:45:36;;;;;;;1999.90;999.90;;;;;;;12.76;100.00;98274.63;4971970;28;20042;-73
2022/10/21 08:48:06;;;;;;;1999.90;999.90;;;;;;;12.83;100.00;98275.03;4971579;28;20035;-73
2022/10/21 08:50:41;;;;;;;1999.90;999.90;;;;;;;12.68;100.00;98264.34;4971724;28;20042;-73
2022/10/21 08:53:32;;;;;;;1999.90;999.90;;;;;;;12.68;100.00;98272.56;4971552;28;20085;-73
2022/10/21 08:56:15;;;;;;;1999.90;999.90;;;;;;;12.77;100.00;98269.94;4972090;28;20062;-73
2022/10/21 08:58:45;;;;;;;1999.90;999.90;;;;;;;12.84;100.00;98262.13;4971825;28;20444;-73
2022/10/21 09:01:21;;;;;;;1999.90;999.90;;;;;;;12.83;100.00;98264.06;4971789;28;20042;-73
2022/10/21 09:03:58;;;;;;;1999.90;999.90;;;;;;;12.84;100.00;98262.94;4971485;28;20031;-73
2022/10/21 09:06:35;;;;;;;1999.90;999.90;;;;;;;13.04;100.00;98274.66;4974709;28;20503;-72
2022/10/21 09:09:03;;;;;;;1999.90;999.90;;;;;;;13.08;100.00;98270.19;4975320;28;20509;-73
2022/10/21 09:11:43;;;;;;;1999.90;999.90;;;;;;;13.15;100.00;98265.97;4975337;28;20496;-73
2022/10/21 09:14:29;;;;;;;1999.90;999.90;;;;;;;13.14;100.00;98269.00;4964738;28;20035;-73
2022/10/21 09:17:07;;;;;;;1999.90;999.90;;;;;;;13.26;100.00;98267.38;4955881;29;20054;-73
2022/10/21 09:19:38;;;;;;;1999.90;999.90;;;;;;;13.30;100.00;98267.59;4955863;28;20082;-73
2022/10/21 09:22:06;;;;;;;1999.90;999.90;;;;;;;13.43;100.00;98271.47;4955767;28;20050;-73
2022/10/21 09:24:46;;;;;;;1999.90;999.90;;;;;;;13.40;100.00;98272.88;4956187;29;20030;-73
2022/10/21 09:27:11;;;;;;;1999.90;999.90;;;;;;;13.43;100.00;98271.47;4956080;28;20042;-73
2022/10/21 09:29:41;;;;;;;1999.90;999.90;;;;;;;13.39;100.00;98283.06;4958024;29;20027;-73
2022/10/21 09:32:40;;;;;;;1999.90;999.90;;;;;;;13.26;100.00;98270.13;4962694;28;20038;-74
2022/10/21 09:35:16;;;;;;;1999.90;999.90;;;;;;;13.32;100.00;98265.34;4958126;28;20039;-73
2022/10/21 09:37:54;;;;;;;1999.90;999.90;;;;;;;13.37;100.00;98257.03;4955716;29;20051;-73
2022/10/21 09:40:23;;;;;;;1999.90;999.90;;;;;;;13.52;100.00;98261.38;4955573;29;20073;-74
2022/10/21 09:42:51;;;;;;;1999.90;999.90;;;;;;;13.59;100.00;98262.59;4955258;29;20146;-72
2022/10/21 09:45:22;;;;;;;1999.90;999.90;;;;;;;13.76;100.00;98261.94;4955399;28;20030;-73
2022/10/21 09:47:54;;;;;;;1999.90;999.90;;;;;;;13.84;100.00;98256.56;4955288;29;20115;-72
2022/10/21 09:50:20;;;;;;;1999.90;999.90;;;;;;;13.92;100.00;98253.06;4955136;29;20027;-72
2022/10/21 09:52:51;;;;;;;1999.90;999.90;;;;;;;14.01;100.00;98258.63;4955282;28;20086;-73
2022/10/21 09:55:17;;;;;;;1999.90;999.90;;;;;;;14.50;100.00;98262.47;4955864;29;20477;-72
2022/10/21 09:58:25;;;;;;;1999.90;999.90;;;;;;;14.65;100.00;98260.16;4956363;29;20031;-72
2022/10/21 10:00:51;;;;;;;1999.90;999.90;;;;;;;14.66;100.00;98258.22;4972374;28;20047;-73
2022/10/21 10:03:36;;;;;;;1999.90;999.90;;;;;;;14.75;100.00;98248.88;4955146;29;20038;-73
2022/10/21 10:06:04;;;;;;;1999.90;999.90;;;;;;;14.80;100.00;98250.66;4954970;29;20137;-72
2022/10/21 10:08:40;;;;;;;1999.90;999.90;;;;;;;14.91;100.00;98255.59;4954826;28;20278;-73
2022/10/21 10:11:09;;;;;;;1999.90;999.90;;;;;;;14.99;100.00;98252.06;4954879;29;20043;-73
2022/10/21 10:13:51;;;;;;;1999.90;999.90;;;;;;;14.95;100.00;98247.50;4954915;29;20042;-73
2022/10/21 10:16:25;;;;;;;1999.90;999.90;;;;;;;14.96;100.00;98249.97;4955180;28;20057;-73
2022/10/21 10:18:52;;;;;;;1999.90;999.90;;;;;;;15.02;100.00;98239.59;4958373;29;20100;-73
2022/10/21 10:21:20;;;;;;;1999.90;999.90;;;;;;;15.02;100.00;98234.91;4958282;29;20027;-73
2022/10/21 10:23:53;;;;;;;1999.90;999.90;;;;;;;15.14;100.00;98226.03;4954798;29;20038;-73
2022/10/21 10:26:37;;;;;;;1999.90;999.90;;;;;;;14.92;100.00;98213.16;4955232;29;20833;-73
2022/10/21 10:29:09;;;;;;;1999.90;999.90;;;;;;;15.63;100.00;98219.41;4954658;29;20473;-73
2022/10/21 10:31:36;;;;;;;1999.90;999.90;;;;;;;16.41;100.00;98217.50;4954382;29;20035;-72
2022/10/21 10:34:05;;;;;;;1999.90;999.90;;;;;;;16.81;100.00;98220.84;4954284;29;20553;-73
2022/10/21 10:36:36;;;;;;;1999.90;999.90;;;;;;;17.21;100.00;98224.94;4954509;29;20031;-73
2022/10/21 10:39:07;;;;;;;1999.90;999.90;;;;;;;17.58;100.00;98224.13;4954217;28;20053;-73
2022/10/21 10:41:38;;;;;;;1999.90;999.90;;;;;;;18.03;100.00;98229.88;4952940;29;20026;-73
2022/10/21 10:44:10;;;;;;;1999.90;999.90;;;;;;;18.03;100.00;98229.88;4954412;29;20700;-73
2022/10/21 10:46:37;;;;;;;1999.90;999.90;;;;;;;17.89;100.00;98222.94;4954346;29;20027;-73
2022/10/21 10:49:11;;;;;;;1999.90;999.90;;;;;;;18.22;100.00;98221.09;4954192;29;20548;-73
2022/10/21 10:51:39;;;;;;;1999.90;999.90;;;;;;;18.08;100.00;98226.88;4954238;29;20527;-73
2022/10/21 10:54:13;;;;;;;1999.90;999.90;;;;;;;17.70;100.00;98209.56;4954132;29;20031;-73
2022/10/21 10:56:55;;;;;;;1999.90;999.90;;;;;;;18.00;100.00;98211.16;4953339;29;20030;-73
2022/10/21 10:59:42;;;;;;;1999.90;999.90;;;;;;;18.62;100.00;98208.34;4954104;29;20350;-74